Time;durP1;ratioP1;P1;durP2;ratioP2;P2;SDS_P1;SDS_P2;PMS_P1;PMS_P2;Temp;Humidity;BMP_temperature;BMP_pressure;BME280_temperature;BME280_humidity;BME280_pressure;Samples;Min_cycle;Max_cycle;Signal;HPM_P1;HPM_P2
2021/12/05 00:22:28;;;;;;;34.45;13.73;;;4.50;99.90;;;;;;4927341;29;20047;-58
2021/12/05 00:24:57;;;;;;;31.13;12.93;;;4.50;99.90;;;;;;4928226;29;20071;-58
2021/12/05 00:27:27;;;;;;;28.38;13.10;;;4.50;99.90;;;;;;4927156;29;20425;-59
2021/12/05 00:46:15;;;;;;;24.35;10.73;;;4.40;99.90;;;;;;4923583;29;20468;-58
2021/12/05 00:48:54;;;;;;;22.63;11.10;;;4.40;99.90;;;;;;4907778;29;20059;-59
2021/12/05 01:05:18;;;;;;;19.20;8.77;;;4.40;99.90;;;;;;4904638;29;20059;-59
2021/12/05 01:10:36;;;;;;;20.67;8.48;;;4.40;99.90;;;;;;4922402;29;20126;-59
2021/12/05 01:15:33;;;;;;;17.38;7.50;;;4.30;99.90;;;;;;4923775;29;20063;-55
2021/12/05 01:18:07;;;;;;;18.10;8.20;;;4.30;99.90;;;;;;4923483;29;20058;-58
2021/12/05 01:20:37;;;;;;;18.05;8.20;;;4.30;99.90;;;;;;4923403;29;20051;-58
2021/12/05 01:23:15;;;;;;;22.92;8.30;;;4.30;99.90;;;;;;4924554;29;20102;-57
2021/12/05 01:25:43;;;;;;;19.38;8.05;;;4.30;99.90;;;;;;4901746;29;20171;-58
2021/12/05 01:28:31;;;;;;;14.43;7.80;;;4.30;99.90;;;;;;4908700;29;20048;-58
2021/12/05 01:31:15;;;;;;;17.27;7.57;;;4.30;99.90;;;;;;4923500;29;20143;-55
2021/12/05 02:29:44;;;;;;;14.70;8.88;;;4.10;99.90;;;;;;4924366;29;20474;-58
2021/12/05 02:40:48;;;;;;;22.02;9.25;;;4.10;99.90;;;;;;4909663;29;20074;-59
2021/12/05 02:43:24;;;;;;;21.10;9.98;;;4.10;99.90;;;;;;4925546;29;20048;-53
2021/12/05 02:45:53;;;;;;;21.92;9.90;;;4.10;99.90;;;;;;4908990;29;20371;-55
2021/12/05 02:48:21;;;;;;;20.17;10.35;;;4.10;99.90;;;;;;4928424;29;20047;-59
2021/12/05 02:50:47;;;;;;;21.48;9.02;;;4.10;99.90;;;;;;4908761;29;20047;-57
2021/12/05 02:53:27;;;;;;;20.55;10.02;;;4.10;99.90;;;;;;4927656;29;20633;-58
2021/12/05 02:55:54;;;;;;;17.35;9.02;;;4.10;99.90;;;;;;4926624;29;20471;-59
2021/12/05 03:01:47;;;;;;;21.95;9.13;;;4.10;99.90;;;;;;4924783;29;20067;-58
2021/12/05 03:04:03;;;;;;;20.27;9.50;;;4.10;99.90;;;;;;4922991;29;20058;-57
2021/12/05 03:06:32;;;;;;;20.20;9.48;;;4.00;99.90;;;;;;4925086;29;20047;-55
2021/12/05 03:09:05;;;;;;;19.10;10.00;;;4.10;99.90;;;;;;4910695;29;20082;-59
2021/12/05 03:11:31;;;;;;;17.67;9.93;;;4.10;99.90;;;;;;4924739;29;20102;-56
2021/12/05 03:13:57;;;;;;;22.63;9.65;;;4.00;99.90;;;;;;4924986;29;20051;-56
2021/12/05 03:16:25;;;;;;;25.95;10.20;;;4.10;99.90;;;;;;4924042;29;20040;-54
2021/12/05 03:18:51;;;;;;;25.50;9.70;;;4.10;99.90;;;;;;4926330;29;20079;-56
2021/12/05 03:21:18;;;;;;;20.10;10.10;;;4.00;99.90;;;;;;4926110;29;20047;-56
2021/12/05 03:23:47;;;;;;;18.60;9.82;;;4.10;99.90;;;;;;4925103;29;20054;-56
2021/12/05 03:26:25;;;;;;;23.80;10.25;;;4.10;99.90;;;;;;4909208;29;20384;-59
2021/12/05 03:28:54;;;;;;;22.05;10.43;;;4.10;99.90;;;;;;4925434;29;20066;-59
2021/12/05 03:31:21;;;;;;;24.02;11.10;;;4.10;99.90;;;;;;4923915;29;20131;-58
2021/12/05 03:33:47;;;;;;;20.70;9.85;;;4.00;99.90;;;;;;4929190;29;20509;-57
2021/12/05 03:36:13;;;;;;;22.88;10.60;;;4.10;99.90;;;;;;4911583;29;20052;-56
2021/12/05 03:38:41;;;;;;;19.73;10.07;;;4.10;99.90;;;;;;4925303;29;20066;-59
2021/12/05 03:41:09;;;;;;;16.83;10.20;;;4.10;99.90;;;;;;4924942;29;20067;-55
2021/12/05 03:43:36;;;;;;;18.88;10.40;;;4.10;99.90;;;;;;4925119;29;20107;-57
2021/12/05 03:46:03;;;;;;;23.05;10.93;;;4.10;99.90;;;;;;4923751;29;20043;-59
2021/12/05 03:48:32;;;;;;;19.92;10.93;;;4.10;99.90;;;;;;4887425;29;20051;-58
2021/12/05 03:51:00;;;;;;;24.35;10.82;;;4.10;99.90;;;;;;4908925;29;20047;-58
2021/12/05 03:53:26;;;;;;;22.85;11.35;;;4.00;99.90;;;;;;4924069;29;20106;-59
2021/12/05 03:55:54;;;;;;;20.65;10.57;;;4.00;99.90;;;;;;4908064;29;20063;-56
2021/12/05 03:58:21;;;;;;;22.58;11.50;;;4.00;99.90;;;;;;4924826;29;20044;-57
2021/12/05 04:00:55;;;;;;;32.22;11.23;;;4.00;99.90;;;;;;4907997;29;20566;-58
2021/12/05 04:03:23;;;;;;;26.60;11.30;;;4.00;99.90;;;;;;4922393;29;20043;-58
2021/12/05 04:05:49;;;;;;;22.50;12.18;;;4.00;99.90;;;;;;4926291;29;20063;-59
2021/12/05 04:08:18;;;;;;;24.95;12.32;;;4.00;99.90;;;;;;4906875;29;20046;-58
2021/12/05 04:10:48;;;;;;;22.40;11.73;;;4.00;99.90;;;;;;4923234;29;20047;-59
2021/12/05 04:13:14;;;;;;;27.15;12.50;;;4.00;99.90;;;;;;4924256;29;20403;-54
2021/12/05 04:15:41;;;;;;;26.05;11.57;;;4.00;99.90;;;;;;4927883;29;20082;-58
2021/12/05 04:18:07;;;;;;;23.23;12.18;;;3.90;99.90;;;;;;4916961;29;20438;-57
2021/12/05 04:20:33;;;;;;;26.27;11.63;;;3.90;99.90;;;;;;4924670;29;20043;-58
2021/12/05 04:22:59;;;;;;;29.90;11.85;;;3.90;99.90;;;;;;4925750;29;20048;-56
2021/12/05 04:25:26;;;;;;;27.20;12.57;;;4.00;99.90;;;;;;4927929;29;20044;-58
2021/12/05 04:27:54;;;;;;;27.00;12.38;;;3.90;99.90;;;;;;4927778;29;20051;-55
2021/12/05 04:30:22;;;;;;;29.88;12.82;;;3.90;99.90;;;;;;4927550;29;20107;-56
2021/12/05 04:32:49;;;;;;;27.05;12.70;;;3.90;99.90;;;;;;4928206;29;20055;-55
2021/12/05 04:35:16;;;;;;;31.20;13.85;;;3.80;99.90;;;;;;4927057;29;20122;-58
2021/12/05 04:37:43;;;;;;;31.50;13.45;;;3.80;99.90;;;;;;4910593;29;20043;-54
2021/12/05 04:40:11;;;;;;;31.23;13.18;;;3.80;99.90;;;;;;4928013;29;20446;-58
2021/12/05 04:42:37;;;;;;;37.28;13.60;;;3.80;99.90;;;;;;4928598;29;20051;-59
2021/12/05 04:45:07;;;;;;;27.40;13.77;;;3.80;99.90;;;;;;4909676;29;20040;-58
2021/12/05 04:47:32;;;;;;;31.23;14.57;;;3.80;99.90;;;;;;4924825;29;20091;-57
2021/12/05 04:49:58;;;;;;;30.90;14.23;;;3.80;99.90;;;;;;4923559;29;20539;-56
2021/12/05 04:52:25;;;;;;;37.85;15.07;;;3.80;99.90;;;;;;4925403;29;20051;-59
2021/12/05 04:54:51;;;;;;;28.23;14.05;;;3.80;99.90;;;;;;4923912;29;20043;-53
2021/12/05 04:57:16;;;;;;;29.67;14.68;;;3.80;99.90;;;;;;4905461;29;20059;-57
2021/12/05 04:59:49;;;;;;;32.03;14.73;;;3.70;99.90;;;;;;4923489;29;20043;-59
2021/12/05 05:02:16;;;;;;;34.33;15.43;;;3.80;99.90;;;;;;4924699;29;20044;-58
2021/12/05 05:04:46;;;;;;;33.75;14.98;;;3.80;99.90;;;;;;4922051;29;20044;-55
2021/12/05 05:07:18;;;;;;;39.72;16.25;;;3.80;99.90;;;;;;4923362;29;20486;-56
2021/12/05 05:09:45;;;;;;;35.08;14.32;;;3.80;99.90;;;;;;4924098;29;20125;-58
2021/12/05 05:12:12;;;;;;;33.00;15.32;;;3.80;99.90;;;;;;4921971;29;20134;-58
2021/12/05 05:14:39;;;;;;;30.83;15.00;;;3.80;99.90;;;;;;4892421;29;20058;-57
2021/12/05 05:17:05;;;;;;;29.77;14.52;;;3.80;99.90;;;;;;4923505;29;20047;-58
2021/12/05 05:19:36;;;;;;;37.03;15.00;;;3.80;99.90;;;;;;4924192;29;20051;-57
2021/12/05 05:22:19;;;;;;;32.88;15.27;;;3.80;99.90;;;;;;4906389;29;20047;-51
2021/12/05 05:46:37;;;;;;;35.35;15.85;;;3.80;99.90;;;;;;4923667;29;20058;-58
2021/12/05 05:49:16;;;;;;;27.92;13.23;;;3.80;99.90;;;;;;4910847;29;20645;-53
2021/12/05 05:51:42;;;;;;;28.60;14.40;;;3.70;99.90;;;;;;4922742;29;20043;-53
2021/12/05 05:54:09;;;;;;;33.72;14.45;;;3.80;99.90;;;;;;4924204;29;20403;-55
2021/12/05 05:56:36;;;;;;;32.17;13.30;;;3.80;99.90;;;;;;4923612;29;20040;-58
2021/12/05 05:59:15;;;;;;;33.85;13.63;;;3.80;99.90;;;;;;4923322;29;20048;-58
2021/12/05 06:04:27;;;;;;;27.83;14.02;;;3.80;99.90;;;;;;4884010;29;20808;-59
2021/12/05 06:06:52;;;;;;;30.80;13.60;;;3.70;99.90;;;;;;4922145;29;20066;-59
2021/12/05 06:09:18;;;;;;;30.73;13.50;;;3.80;99.90;;;;;;4919769;29;20048;-58
2021/12/05 06:11:44;;;;;;;31.92;13.90;;;3.70;99.90;;;;;;4922355;29;20047;-58
2021/12/05 06:14:10;;;;;;;31.65;13.93;;;3.70;99.90;;;;;;4923304;29;20138;-58
2021/12/05 06:16:36;;;;;;;33.47;13.95;;;3.70;99.90;;;;;;4923456;29;20056;-55
2021/12/05 06:19:02;;;;;;;27.25;13.10;;;3.70;99.90;;;;;;4923122;29;20071;-59
2021/12/05 06:21:28;;;;;;;32.22;13.48;;;3.70;99.90;;;;;;4907484;29;20399;-52
2021/12/05 06:23:53;;;;;;;30.27;11.98;;;3.70;99.90;;;;;;4921915;29;20142;-59
2021/12/05 06:26:21;;;;;;;32.67;12.20;;;3.70;99.90;;;;;;4922005;29;20075;-54
2021/12/05 06:29:00;;;;;;;27.58;11.63;;;3.70;99.90;;;;;;4906313;29;20052;-54
2021/12/05 06:37:25;;;;;;;22.05;10.60;;;3.60;99.90;;;;;;4924884;29;20083;-54
2021/12/05 06:39:49;;;;;;;25.10;10.30;;;3.60;99.90;;;;;;4921246;29;20047;-59
2021/12/05 06:47:41;;;;;;;26.25;10.23;;;3.50;99.90;;;;;;4906436;29;20062;-57
2021/12/05 06:50:07;;;;;;;26.23;10.35;;;3.50;99.90;;;;;;4923324;29;20051;-59
2021/12/05 06:52:34;;;;;;;31.10;10.38;;;3.50;99.90;;;;;;4907487;29;20063;-57
2021/12/05 06:55:00;;;;;;;23.63;9.15;;;3.50;99.90;;;;;;4920498;29;20051;-56
2021/12/05 06:57:26;;;;;;;20.30;8.77;;;3.50;99.90;;;;;;4921854;28;20126;-59
2021/12/05 06:59:52;;;;;;;28.50;10.15;;;3.50;99.90;;;;;;4922981;29;20052;-54
2021/12/05 07:02:19;;;;;;;30.05;9.93;;;3.50;99.90;;;;;;4922681;29;20036;-57
2021/12/05 07:07:28;;;;;;;26.55;9.73;;;3.40;99.90;;;;;;4925027;29;20106;-59
2021/12/05 07:09:53;;;;;;;22.17;9.00;;;3.40;99.90;;;;;;4934192;29;20048;-58
2021/12/05 07:14:59;;;;;;;23.10;9.93;;;3.40;99.90;;;;;;4925890;29;20043;-58
2021/12/05 07:20:04;;;;;;;29.00;10.02;;;3.40;99.90;;;;;;4926749;29;20126;-59
2021/12/05 07:22:49;;;;;;;24.30;9.45;;;3.40;99.90;;;;;;4927167;29;20075;-58
2021/12/05 07:25:28;;;;;;;17.08;8.73;;;3.30;99.90;;;;;;4925907;29;20395;-59
2021/12/05 07:42:06;;;;;;;27.30;10.68;;;3.30;99.90;;;;;;4926002;29;20090;-58
2021/12/05 07:44:23;;;;;;;28.98;9.82;;;3.30;99.90;;;;;;4925065;29;20412;-59
2021/12/05 07:46:49;;;;;;;26.60;9.05;;;3.40;99.90;;;;;;4923036;29;20048;-59
2021/12/05 07:49:16;;;;;;;22.50;9.52;;;3.30;99.90;;;;;;4925641;29;20118;-58
2021/12/05 07:51:46;;;;;;;27.63;9.80;;;3.40;99.90;;;;;;4923374;29;20066;-58
2021/12/05 07:54:28;;;;;;;25.55;9.57;;;3.40;99.90;;;;;;4919977;29;20324;-53
2021/12/05 07:57:19;;;;;;;21.67;8.60;;;3.40;99.90;;;;;;4925867;29;20416;-59
2021/12/05 08:16:16;;;;;;;24.42;9.65;;;3.40;99.90;;;;;;4898614;29;20135;-58
2021/12/05 08:18:42;;;;;;;20.98;9.38;;;3.40;99.90;;;;;;4894266;29;20051;-59
2021/12/05 08:21:09;;;;;;;25.73;9.65;;;3.40;99.90;;;;;;4911372;29;20478;-57
2021/12/05 08:23:35;;;;;;;28.05;9.80;;;3.40;99.90;;;;;;4910389;29;20048;-59
2021/12/05 08:26:09;;;;;;;25.70;10.40;;;3.40;99.90;;;;;;4928114;29;20043;-59
2021/12/05 08:31:45;;;;;;;25.58;9.98;;;3.40;99.90;;;;;;4928869;29;20083;-57
2021/12/05 08:45:40;;;;;;;31.63;10.52;;;3.50;99.90;;;;;;4926881;29;20046;-54
2021/12/05 09:31:14;;;;;;;28.27;13.32;;;4.10;99.90;;;;;;4925354;29;20055;-58
2021/12/05 10:12:04;;;;;;;25.13;12.82;;;4.10;99.90;;;;;;4925280;29;20056;-57
2021/12/05 10:14:54;;;;;;;27.63;12.80;;;4.00;99.90;;;;;;4909534;29;20055;-58
2021/12/05 10:17:46;;;;;;;23.33;12.95;;;4.10;99.90;;;;;;4924495;29;20055;-59
2021/12/05 10:37:26;;;;;;;25.83;12.52;;;4.10;99.90;;;;;;4928048;29;20403;-58
2021/12/05 10:40:12;;;;;;;27.27;14.07;;;4.10;99.90;;;;;;4910438;29;20110;-58
2021/12/05 10:42:58;;;;;;;34.47;10.95;;;4.20;99.90;;;;;;4926997;29;20047;-56
2021/12/05 10:45:35;;;;;;;57.05;13.98;;;4.20;99.90;;;;;;4912671;29;20043;-54
2021/12/05 10:48:07;;;;;;;45.90;13.98;;;4.20;99.90;;;;;;4929944;29;20048;-59
2021/12/05 10:50:41;;;;;;;100.15;17.75;;;4.30;99.90;;;;;;4926746;29;20052;-52
2021/12/05 10:53:39;;;;;;;112.05;19.02;;;4.40;99.90;;;;;;4928100;29;20092;-58
2021/12/05 10:56:10;;;;;;;28.38;12.75;;;4.40;99.90;;;;;;4927421;29;20056;-58
2021/12/05 10:58:57;;;;;;;23.45;11.98;;;4.40;99.90;;;;;;4912528;29;20162;-58
2021/12/05 11:01:43;;;;;;;23.67;12.60;;;4.40;99.90;;;;;;4929580;29;20043;-58
2021/12/05 11:04:16;;;;;;;28.77;13.20;;;4.40;99.90;;;;;;4910836;29;20043;-56
2021/12/05 11:06:50;;;;;;;26.17;12.95;;;4.40;99.90;;;;;;4911531;29;20544;-57
2021/12/05 11:09:32;;;;;;;28.60;13.35;;;4.40;99.90;;;;;;4928638;29;20106;-57
2021/12/05 11:12:11;;;;;;;34.13;12.90;;;4.40;99.90;;;;;;4923557;29;20055;-57
2021/12/05 11:14:45;;;;;;;21.27;12.15;;;4.30;99.90;;;;;;4927602;29;20048;-57
2021/12/05 11:17:13;;;;;;;21.02;12.25;;;4.30;99.90;;;;;;4928228;29;20063;-58
2021/12/05 11:19:46;;;;;;;25.25;12.93;;;4.40;99.90;;;;;;4928987;29;20475;-57
2021/12/05 11:22:25;;;;;;;30.70;12.82;;;4.30;99.90;;;;;;4928900;29;20079;-57
2021/12/05 11:24:54;;;;;;;25.15;12.38;;;4.40;99.90;;;;;;4928269;29;20105;-57
2021/12/05 11:27:32;;;;;;;23.90;12.38;;;4.40;99.90;;;;;;4930065;29;20507;-56
2021/12/05 11:30:03;;;;;;;25.30;11.90;;;4.40;99.90;;;;;;4911733;29;20054;-57
2021/12/05 11:32:52;;;;;;;26.07;12.73;;;4.40;99.90;;;;;;4928784;29;20047;-57
2021/12/05 11:35:42;;;;;;;23.77;12.40;;;4.50;99.90;;;;;;4919331;29;20379;-57
2021/12/05 11:38:13;;;;;;;22.88;12.05;;;4.50;99.90;;;;;;4929471;29;20042;-58
2021/12/05 11:41:02;;;;;;;24.27;12.73;;;4.50;99.90;;;;;;4891933;29;20051;-57
2021/12/05 11:43:31;;;;;;;23.40;12.25;;;4.50;99.90;;;;;;4927712;29;20547;-57
2021/12/05 11:46:07;;;;;;;24.15;12.45;;;4.50;99.90;;;;;;4910254;29;20502;-57
2021/12/05 11:49:13;;;;;;;22.63;12.27;;;4.60;99.90;;;;;;4927806;29;20411;-58
2021/12/05 11:51:52;;;;;;;19.30;11.98;;;4.60;99.90;;;;;;4900374;29;20503;-57
2021/12/05 11:54:31;;;;;;;24.77;11.15;;;4.60;99.90;;;;;;4920767;29;20079;-57
2021/12/05 11:57:14;;;;;;;24.63;11.25;;;4.70;99.90;;;;;;4920651;29;20361;-58
2021/12/05 11:59:50;;;;;;;22.45;11.88;;;4.70;99.90;;;;;;4926487;29;20055;-56
2021/12/05 12:02:28;;;;;;;19.67;11.68;;;4.70;99.90;;;;;;4925850;29;20483;-57
2021/12/05 12:04:56;;;;;;;19.40;11.48;;;4.80;99.90;;;;;;4925147;29;20376;-58
2021/12/05 12:07:34;;;;;;;22.88;11.43;;;4.80;99.90;;;;;;4925826;29;20051;-56
2021/12/05 12:10:09;;;;;;;20.60;11.50;;;4.90;99.90;;;;;;4921104;29;20525;-57
2021/12/05 12:12:35;;;;;;;23.17;12.20;;;4.90;99.90;;;;;;4924353;29;20062;-59
2021/12/05 12:15:02;;;;;;;24.58;12.80;;;5.00;99.90;;;;;;4922642;29;20638;-56
2021/12/05 12:17:28;;;;;;;20.98;12.57;;;5.00;99.90;;;;;;4907771;29;20510;-57
2021/12/05 12:19:55;;;;;;;25.13;12.38;;;5.00;99.90;;;;;;4922907;29;20044;-56
2021/12/05 12:22:23;;;;;;;21.00;11.60;;;5.10;99.90;;;;;;4922574;29;20040;-57
2021/12/05 12:25:00;;;;;;;30.20;12.77;;;5.10;99.90;;;;;;4922342;29;20040;-56
2021/12/05 12:27:27;;;;;;;24.75;12.63;;;5.10;99.90;;;;;;4924566;29;20055;-57
2021/12/05 12:29:57;;;;;;;24.52;12.63;;;5.10;99.90;;;;;;4926449;29;20047;-56
2021/12/05 12:32:30;;;;;;;23.25;12.82;;;5.20;99.90;;;;;;4925028;29;20071;-57
2021/12/05 12:35:03;;;;;;;25.17;12.60;;;5.20;99.90;;;;;;4925861;29;20403;-57
2021/12/05 12:37:29;;;;;;;20.80;12.70;;;5.20;99.90;;;;;;4924976;29;20130;-56
2021/12/05 12:39:55;;;;;;;22.08;12.55;;;5.30;99.90;;;;;;4924338;29;20175;-56
2021/12/05 12:42:23;;;;;;;22.52;11.90;;;5.30;99.90;;;;;;4925301;29;20078;-57
2021/12/05 12:45:18;;;;;;;21.25;12.75;;;5.30;99.90;;;;;;4926356;29;20040;-57
2021/12/05 12:47:58;;;;;;;22.23;12.18;;;5.30;99.90;;;;;;4925440;29;20131;-56
2021/12/05 12:50:34;;;;;;;25.42;12.70;;;5.30;99.90;;;;;;4923791;29;20533;-58
2021/12/05 12:53:12;;;;;;;21.88;11.63;;;5.30;99.90;;;;;;4921902;29;20190;-58
2021/12/05 12:56:05;;;;;;;21.08;12.05;;;5.30;99.90;;;;;;4921395;29;20495;-56
2021/12/05 12:58:46;;;;;;;25.03;12.80;;;5.30;99.90;;;;;;4922624;29;20099;-57
2021/12/05 13:12:32;;;;;;;22.33;10.02;;;5.30;99.90;;;;;;4922503;29;20047;-58
2021/12/05 13:15:24;;;;;;;21.45;10.38;;;5.30;99.90;;;;;;4920551;29;20048;-57
2021/12/05 13:17:53;;;;;;;16.33;9.77;;;5.30;99.90;;;;;;4914222;29;20051;-57
2021/12/05 13:20:25;;;;;;;19.88;9.38;;;5.30;99.90;;;;;;4933823;28;20055;-58
2021/12/05 13:23:11;;;;;;;22.58;11.00;;;5.30;99.90;;;;;;4923751;29;20110;-57
2021/12/05 13:26:02;;;;;;;18.98;11.07;;;5.30;99.90;;;;;;4921019;28;20056;-57
2021/12/05 13:28:37;;;;;;;19.75;10.65;;;5.30;99.90;;;;;;4921172;29;20047;-58
2021/12/05 13:31:28;;;;;;;18.58;10.13;;;5.30;99.90;;;;;;4939805;29;20059;-57
2021/12/05 13:34:17;;;;;;;18.58;9.88;;;5.30;99.90;;;;;;4922491;29;20070;-58
2021/12/05 13:36:56;;;;;;;16.30;9.60;;;5.40;99.90;;;;;;4921482;29;20506;-58
2021/12/05 13:39:47;;;;;;;17.42;10.05;;;5.30;99.90;;;;;;4937328;29;20115;-57
2021/12/05 13:42:18;;;;;;;19.40;10.23;;;5.40;99.90;;;;;;4923282;29;20052;-57
2021/12/05 13:45:03;;;;;;;20.95;14.13;;;5.40;99.90;;;;;;4922501;29;20103;-56
2021/12/05 13:47:56;;;;;;;23.45;13.73;;;5.40;99.90;;;;;;4901425;29;20090;-58
2021/12/05 13:50:30;;;;;;;19.35;11.60;;;5.40;99.90;;;;;;4906500;29;20054;-58
2021/12/05 13:53:02;;;;;;;21.63;13.35;;;5.40;99.90;;;;;;4922116;29;20082;-58
2021/12/05 13:55:37;;;;;;;30.80;15.55;;;5.40;99.90;;;;;;4905832;29;20039;-57
2021/12/05 13:58:32;;;;;;;29.90;16.10;;;5.40;99.90;;;;;;4908486;29;20051;-57
2021/12/05 14:00:58;;;;;;;45.30;21.70;;;5.40;99.90;;;;;;4889855;29;23440;-57
2021/12/05 14:03:53;;;;;;;68.80;30.02;;;5.40;99.90;;;;;;4901210;29;20046;-57
2021/12/05 14:06:39;;;;;;;157.60;63.20;;;5.40;99.90;;;;;;4922079;29;20415;-56
2021/12/05 14:09:05;;;;;;;74.10;33.35;;;5.30;99.90;;;;;;4913438;29;20580;-58
2021/12/05 14:11:31;;;;;;;35.55;17.33;;;5.30;99.90;;;;;;4909502;29;20050;-58
2021/12/05 14:14:01;;;;;;;23.35;13.90;;;5.30;99.90;;;;;;4923338;29;20047;-57
2021/12/05 14:16:35;;;;;;;23.75;13.00;;;5.30;99.90;;;;;;4921544;29;20376;-57
2021/12/05 14:19:04;;;;;;;22.23;11.75;;;5.30;99.90;;;;;;4905688;29;21259;-58
2021/12/05 14:21:30;;;;;;;22.52;11.90;;;5.30;99.90;;;;;;4926102;29;20127;-57
2021/12/05 14:23:59;;;;;;;21.90;12.57;;;5.20;99.90;;;;;;4921599;29;20103;-57
2021/12/05 14:26:28;;;;;;;20.98;12.32;;;5.30;99.90;;;;;;4921478;29;20048;-57
2021/12/05 14:29:04;;;;;;;20.48;11.65;;;5.20;99.90;;;;;;4901369;29;20058;-57
2021/12/05 14:31:56;;;;;;;25.30;14.07;;;5.20;99.90;;;;;;4921537;29;20091;-57
2021/12/05 14:34:23;;;;;;;28.85;17.35;;;5.20;99.90;;;;;;4909038;29;20535;-57
2021/12/05 14:37:01;;;;;;;25.50;14.07;;;5.20;99.90;;;;;;4908880;29;20051;-57
2021/12/05 14:39:29;;;;;;;30.00;15.77;;;5.20;99.90;;;;;;4924913;29;20126;-56
2021/12/05 14:41:59;;;;;;;26.80;14.68;;;5.10;99.90;;;;;;4925718;29;20582;-57
2021/12/05 14:44:25;;;;;;;30.45;15.10;;;5.10;99.90;;;;;;4927295;29;20044;-57
2021/12/05 14:46:56;;;;;;;27.35;17.02;;;5.10;99.90;;;;;;4923418;29;20054;-57
2021/12/05 14:49:27;;;;;;;31.05;14.82;;;5.10;99.90;;;;;;4923957;29;20191;-56
2021/12/05 14:51:54;;;;;;;35.58;19.83;;;5.00;99.90;;;;;;4925768;29;20159;-57
2021/12/05 14:54:34;;;;;;;25.70;14.50;;;5.00;99.90;;;;;;4923837;29;20074;-56
2021/12/05 14:57:05;;;;;;;30.33;16.00;;;5.00;99.90;;;;;;4926721;29;20363;-57
2021/12/05 14:59:31;;;;;;;30.40;13.75;;;4.90;99.90;;;;;;4923487;29;20185;-58
2021/12/05 15:01:58;;;;;;;24.80;13.55;;;4.90;99.90;;;;;;4910444;29;20122;-59
2021/12/05 15:04:30;;;;;;;26.58;13.85;;;5.00;99.90;;;;;;4903057;29;20078;-57
2021/12/05 15:06:57;;;;;;;22.83;12.88;;;4.90;99.90;;;;;;4898944;29;20119;-58
2021/12/05 15:09:25;;;;;;;24.55;13.35;;;4.90;99.90;;;;;;4921059;29;20055;-58
2021/12/05 15:11:57;;;;;;;26.63;15.18;;;4.90;99.90;;;;;;4901111;29;20630;-56
2021/12/05 15:14:24;;;;;;;34.25;18.63;;;4.90;99.90;;;;;;4920178;29;20474;-57
2021/12/05 15:17:04;;;;;;;28.02;15.23;;;4.80;99.90;;;;;;4905953;29;20048;-56
2021/12/05 15:19:31;;;;;;;30.42;13.85;;;4.80;99.90;;;;;;4925179;29;20051;-57
2021/12/05 15:21:58;;;;;;;21.88;12.82;;;4.80;99.90;;;;;;4923309;29;20181;-56
2021/12/05 15:24:27;;;;;;;29.35;15.23;;;4.80;99.90;;;;;;4917199;29;20046;-58
2021/12/05 15:26:55;;;;;;;25.00;14.75;;;4.80;99.90;;;;;;4888681;29;20054;-56
2021/12/05 15:29:21;;;;;;;28.33;15.77;;;4.70;99.90;;;;;;4925070;29;20079;-56
2021/12/05 15:31:47;;;;;;;29.70;15.55;;;4.80;99.90;;;;;;4887920;29;20047;-57
2021/12/05 15:34:18;;;;;;;30.63;17.30;;;4.70;99.90;;;;;;4920494;29;20047;-56
2021/12/05 15:36:44;;;;;;;33.22;17.20;;;4.70;99.90;;;;;;4907318;29;20495;-56
2021/12/05 15:39:20;;;;;;;38.80;21.65;;;4.60;99.90;;;;;;4922920;29;20043;-58
2021/12/05 15:41:49;;;;;;;39.92;22.08;;;4.60;99.90;;;;;;4925414;29;20051;-57
2021/12/05 15:44:36;;;;;;;48.55;27.38;;;4.60;99.90;;;;;;4903464;29;20351;-57
2021/12/05 15:47:06;;;;;;;44.38;24.15;;;4.60;99.90;;;;;;4907059;29;20055;-58
2021/12/05 15:49:51;;;;;;;39.85;20.80;;;4.60;99.90;;;;;;4922751;29;20055;-57
2021/12/05 15:52:20;;;;;;;35.08;19.02;;;4.50;99.90;;;;;;4924862;29;20443;-57
2021/12/05 15:54:46;;;;;;;34.75;18.70;;;4.50;99.90;;;;;;4921398;29;20422;-57
2021/12/05 15:57:17;;;;;;;27.00;17.23;;;4.50;99.90;;;;;;4903860;29;20058;-58
2021/12/05 15:59:45;;;;;;;31.05;17.40;;;4.50;99.90;;;;;;4925919;29;20134;-56
2021/12/05 16:02:11;;;;;;;35.75;17.60;;;4.50;99.90;;;;;;4901554;29;20040;-57
2021/12/05 16:04:40;;;;;;;33.47;19.48;;;4.40;99.90;;;;;;4924532;29;20135;-57
2021/12/05 16:07:10;;;;;;;33.78;20.23;;;4.50;99.90;;;;;;4923384;29;20048;-59
2021/12/05 16:09:38;;;;;;;32.97;19.73;;;4.40;99.90;;;;;;4920681;29;20142;-58
2021/12/05 16:12:08;;;;;;;32.08;18.65;;;4.40;99.90;;;;;;4904705;29;20157;-58
2021/12/05 16:14:37;;;;;;;39.40;19.00;;;4.50;99.90;;;;;;4920326;29;20052;-59
2021/12/05 16:17:28;;;;;;;34.00;19.00;;;4.40;99.90;;;;;;4921768;29;20060;-59
2021/12/05 16:20:10;;;;;;;36.47;18.35;;;4.40;99.90;;;;;;4902177;29;20081;-59
2021/12/05 16:23:01;;;;;;;32.20;18.48;;;4.40;99.90;;;;;;4901858;29;20074;-58
2021/12/05 16:25:28;;;;;;;36.40;19.85;;;4.40;99.90;;;;;;4917874;29;20056;-59
2021/12/05 16:28:01;;;;;;;32.70;19.10;;;4.40;99.90;;;;;;4899480;29;20059;-59
2021/12/05 16:30:32;;;;;;;32.85;19.70;;;4.40;99.90;;;;;;4903097;29;20060;-59
2021/12/05 16:33:00;;;;;;;38.35;20.77;;;4.40;99.90;;;;;;4918585;29;20054;-59
2021/12/05 16:35:29;;;;;;;32.50;20.58;;;4.30;99.90;;;;;;4886351;29;20094;-58
2021/12/05 16:37:55;;;;;;;32.90;18.88;;;4.30;99.90;;;;;;4920480;29;20051;-59
2021/12/05 16:40:21;;;;;;;33.13;18.17;;;4.30;99.90;;;;;;4917617;29;20191;-59
2021/12/05 16:42:47;;;;;;;33.42;19.20;;;4.30;99.90;;;;;;4912248;29;20430;-59
2021/12/05 16:45:13;;;;;;;32.45;19.20;;;4.30;99.90;;;;;;4903537;29;20410;-57
2021/12/05 16:47:43;;;;;;;32.35;19.73;;;4.20;99.90;;;;;;4900334;29;20579;-58
2021/12/05 16:50:13;;;;;;;31.45;19.08;;;4.20;99.90;;;;;;4885038;29;20087;-59
2021/12/05 16:52:47;;;;;;;34.55;20.30;;;4.20;99.90;;;;;;4898605;29;20079;-59
2021/12/05 16:55:25;;;;;;;31.67;19.77;;;4.20;99.90;;;;;;4901726;29;20142;-59
2021/12/05 16:58:14;;;;;;;29.80;19.15;;;4.20;99.90;;;;;;4918455;29;20055;-59
2021/12/05 17:00:42;;;;;;;34.05;20.35;;;4.20;99.90;;;;;;4918348;29;20566;-59
2021/12/05 17:03:15;;;;;;;33.60;19.15;;;4.10;99.90;;;;;;4920379;29;20039;-58
2021/12/05 17:05:44;;;;;;;33.00;20.15;;;4.10;99.90;;;;;;4918931;29;20132;-59
2021/12/05 17:08:23;;;;;;;33.22;19.17;;;4.10;99.90;;;;;;4899880;29;20168;-59
2021/12/05 17:10:59;;;;;;;31.98;19.77;;;4.10;99.90;;;;;;4919113;29;20044;-59
2021/12/05 17:13:47;;;;;;;30.77;18.75;;;4.10;99.90;;;;;;4916757;29;20048;-59
2021/12/05 17:16:32;;;;;;;34.55;19.58;;;4.10;99.90;;;;;;4916024;29;20051;-59
2021/12/05 17:19:08;;;;;;;31.85;19.52;;;4.10;99.90;;;;;;4896512;29;20484;-59
2021/12/05 17:21:47;;;;;;;30.67;18.33;;;4.00;99.90;;;;;;4895825;29;20051;-58
2021/12/05 17:24:26;;;;;;;35.25;19.35;;;4.00;99.90;;;;;;4895972;29;20054;-59
2021/12/05 17:27:01;;;;;;;33.33;19.33;;;3.90;99.90;;;;;;4915638;29;20487;-59
2021/12/05 17:29:32;;;;;;;36.17;20.38;;;3.90;99.90;;;;;;4919928;29;20055;-59
2021/12/05 17:32:08;;;;;;;37.72;20.65;;;3.90;99.90;;;;;;4918773;29;20469;-58
2021/12/05 17:34:42;;;;;;;36.53;20.85;;;3.80;99.90;;;;;;4899756;29;20161;-58
2021/12/05 17:37:11;;;;;;;37.03;21.23;;;3.80;99.90;;;;;;4901193;29;20735;-59
2021/12/05 17:39:43;;;;;;;41.28;21.00;;;3.80;99.90;;;;;;4911810;29;20114;-58
2021/12/05 17:42:16;;;;;;;36.55;21.05;;;3.80;99.90;;;;;;4901114;29;20051;-59
2021/12/05 17:44:43;;;;;;;33.63;21.33;;;3.80;99.90;;;;;;4883763;29;20050;-58
2021/12/05 17:47:12;;;;;;;37.72;20.80;;;3.80;99.90;;;;;;4902053;29;20511;-58
2021/12/05 17:49:40;;;;;;;36.95;20.55;;;3.80;99.90;;;;;;4899928;29;20058;-58
2021/12/05 17:52:09;;;;;;;35.38;20.23;;;3.70;99.90;;;;;;4901264;29;20057;-57
2021/12/05 17:54:41;;;;;;;32.33;20.00;;;3.70;99.90;;;;;;4915226;29;20060;-59
2021/12/05 17:57:13;;;;;;;31.27;19.67;;;3.80;99.90;;;;;;4916586;29;20506;-59
2021/12/05 18:00:12;;;;;;;33.90;20.58;;;3.70;99.90;;;;;;4901087;29;20138;-59
2021/12/05 18:02:44;;;;;;;37.33;21.13;;;3.70;99.90;;;;;;4914979;29;20050;-59
2021/12/05 18:05:21;;;;;;;33.35;20.48;;;3.70;99.90;;;;;;4886110;29;20487;-57
2021/12/05 18:07:50;;;;;;;33.30;19.17;;;3.70;99.90;;;;;;4917668;29;20518;-59
2021/12/05 18:10:19;;;;;;;30.13;18.23;;;3.70;99.90;;;;;;4901469;29;20060;-58
2021/12/05 18:12:46;;;;;;;28.73;18.63;;;3.60;99.90;;;;;;4919096;29;20126;-57
2021/12/05 18:15:26;;;;;;;31.45;19.73;;;3.60;99.90;;;;;;4918831;29;20048;-59
2021/12/05 18:17:54;;;;;;;29.40;17.67;;;3.60;99.90;;;;;;4918121;29;20048;-59
2021/12/05 18:20:25;;;;;;;32.00;18.98;;;3.50;99.90;;;;;;4897900;29;20533;-59
2021/12/05 18:22:56;;;;;;;29.48;18.00;;;3.50;99.90;;;;;;4900159;29;20048;-59
2021/12/05 18:25:22;;;;;;;31.25;18.90;;;3.50;99.90;;;;;;4894572;29;20388;-59
2021/12/05 18:27:48;;;;;;;28.08;18.35;;;3.50;99.90;;;;;;4919103;29;20573;-59